Time;durP1;ratioP1;P1;durP2;ratioP2;P2;SDS_P1;SDS_P2;PMS_P1;PMS_P2;Temp;Humidity;BMP_temperature;BMP_pressure;BME280_temperature;BME280_humidity;BME280_pressure;Samples;Min_cycle;Max_cycle;Signal;HPM_P1;HPM_P2
2024/02/02 00:00:57;;;;;;;35.45;12.43;;;3.40;99.90;;;;;;5083437;28;20033;-74
2024/02/02 00:03:23;;;;;;;43.65;18.15;;;3.40;99.90;;;;;;5091792;28;20541;-74
2024/02/02 00:05:48;;;;;;;51.20;17.23;;;3.40;99.90;;;;;;5083753;28;20045;-72
2024/02/02 00:08:14;;;;;;;47.67;16.02;;;3.40;99.90;;;;;;5089887;28;20040;-73
2024/02/02 00:10:39;;;;;;;35.80;13.48;;;3.40;99.90;;;;;;5085294;28;20043;-74
2024/02/02 00:13:05;;;;;;;40.63;15.13;;;3.40;99.90;;;;;;5090029;28;20043;-73
2024/02/02 00:15:30;;;;;;;33.08;11.98;;;3.30;99.90;;;;;;5098571;28;20101;-74
2024/02/02 00:17:56;;;;;;;28.20;11.25;;;3.40;99.90;;;;;;5071723;28;20411;-74
2024/02/02 00:20:21;;;;;;;35.08;13.02;;;3.40;99.90;;;;;;5075738;28;20170;-74
2024/02/02 00:22:47;;;;;;;39.47;13.05;;;3.40;99.90;;;;;;5078402;28;20040;-75
2024/02/02 00:25:13;;;;;;;28.52;11.43;;;3.40;99.90;;;;;;5075584;28;20121;-75
2024/02/02 00:27:38;;;;;;;29.55;10.52;;;3.40;99.90;;;;;;5075063;28;20039;-74
2024/02/02 00:30:04;;;;;;;34.65;12.32;;;3.40;99.90;;;;;;5080018;28;20035;-75
2024/02/02 00:32:30;;;;;;;28.92;10.90;;;3.40;99.90;;;;;;5080473;28;20046;-74
2024/02/02 00:34:55;;;;;;;24.00;11.10;;;3.30;99.90;;;;;;5076350;28;20036;-74
2024/02/02 00:37:21;;;;;;;32.90;12.02;;;3.40;99.90;;;;;;5074457;28;20074;-74
2024/02/02 00:39:46;;;;;;;41.15;11.68;;;3.40;99.90;;;;;;5077991;28;20040;-74
2024/02/02 00:42:12;;;;;;;38.83;12.27;;;3.40;99.90;;;;;;5073637;28;20407;-74
2024/02/02 00:44:37;;;;;;;35.70;12.02;;;3.40;99.90;;;;;;5080479;28;20132;-74
2024/02/02 00:47:03;;;;;;;35.65;10.73;;;3.40;99.90;;;;;;5076082;28;20047;-74
2024/02/02 00:49:28;;;;;;;32.30;9.23;;;3.40;99.90;;;;;;5088776;28;20431;-74
2024/02/02 00:51:54;;;;;;;35.15;11.75;;;3.40;99.90;;;;;;5072844;28;20040;-73
2024/02/02 00:54:20;;;;;;;27.35;10.25;;;3.30;99.90;;;;;;5088478;28;20499;-74
2024/02/02 00:56:45;;;;;;;25.63;9.02;;;3.30;99.90;;;;;;5077221;28;20241;-73
2024/02/02 00:59:11;;;;;;;27.83;9.00;;;3.30;99.90;;;;;;5078196;28;20040;-73
2024/02/02 01:01:37;;;;;;;27.65;9.10;;;3.30;99.90;;;;;;5077240;28;20415;-73
2024/02/02 01:04:03;;;;;;;29.02;8.70;;;3.30;99.90;;;;;;5085465;28;20543;-75
2024/02/02 01:06:28;;;;;;;30.90;7.97;;;3.30;99.90;;;;;;5074779;28;20148;-75
2024/02/02 01:08:53;;;;;;;23.70;7.95;;;3.30;99.90;;;;;;5076120;28;20037;-73
2024/02/02 01:11:19;;;;;;;22.55;8.77;;;3.30;99.90;;;;;;5077846;28;20127;-73
2024/02/02 01:13:45;;;;;;;28.55;8.40;;;3.30;99.90;;;;;;5075437;28;20040;-73
2024/02/02 01:16:10;;;;;;;25.83;7.55;;;3.30;99.90;;;;;;5084440;28;20046;-74
2024/02/02 01:18:36;;;;;;;22.23;7.65;;;3.30;99.90;;;;;;5078674;28;20048;-73
2024/02/02 01:21:01;;;;;;;26.15;7.60;;;3.30;99.90;;;;;;5072238;28;20059;-74
2024/02/02 01:23:27;;;;;;;25.70;8.00;;;3.40;99.90;;;;;;5080255;28;20055;-72
2024/02/02 01:25:53;;;;;;;27.83;9.25;;;3.40;99.90;;;;;;5084908;28;20512;-72
2024/02/02 01:28:19;;;;;;;27.85;8.45;;;3.30;99.90;;;;;;5069822;28;20075;-72
2024/02/02 01:30:44;;;;;;;27.40;7.15;;;3.30;99.90;;;;;;5074857;28;20123;-72
2024/02/02 01:33:10;;;;;;;29.67;7.97;;;3.30;99.90;;;;;;5070707;28;20135;-72
2024/02/02 01:35:35;;;;;;;31.85;8.85;;;3.30;99.90;;;;;;5078639;28;20048;-75
2024/02/02 01:38:01;;;;;;;35.45;10.25;;;3.30;99.90;;;;;;5084652;28;20039;-73
2024/02/02 01:40:26;;;;;;;32.92;8.82;;;3.30;99.90;;;;;;5071345;28;20043;-73
2024/02/02 01:42:52;;;;;;;28.08;8.02;;;3.30;99.90;;;;;;5068376;28;20055;-72
2024/02/02 01:45:17;;;;;;;24.55;8.50;;;3.30;99.90;;;;;;5083837;28;20047;-73
2024/02/02 01:47:43;;;;;;;30.85;8.80;;;3.30;99.90;;;;;;5075861;28;20145;-73
2024/02/02 01:50:09;;;;;;;28.63;7.93;;;3.30;99.90;;;;;;5073949;28;20036;-72
2024/02/02 01:52:34;;;;;;;28.75;8.57;;;3.20;99.90;;;;;;5075193;28;20047;-75
2024/02/02 01:55:00;;;;;;;25.65;8.25;;;3.20;99.90;;;;;;5086742;28;20043;-71
2024/02/02 01:57:26;;;;;;;29.48;8.73;;;3.20;99.90;;;;;;5079225;28;20052;-73
2024/02/02 01:59:52;;;;;;;23.88;8.57;;;3.30;99.90;;;;;;5082807;28;20043;-72
2024/02/02 02:02:18;;;;;;;36.15;9.45;;;3.20;99.90;;;;;;5074645;28;20043;-72
2024/02/02 02:04:43;;;;;;;28.65;8.43;;;3.20;99.90;;;;;;5080254;28;20032;-72
2024/02/02 02:07:09;;;;;;;26.58;8.93;;;3.20;99.90;;;;;;5063781;28;20033;-76
2024/02/02 02:09:35;;;;;;;30.30;9.27;;;3.20;99.90;;;;;;5076564;28;20042;-75
2024/02/02 02:12:01;;;;;;;32.35;8.43;;;3.20;99.90;;;;;;5067922;28;20147;-73
2024/02/02 02:14:27;;;;;;;33.72;8.93;;;3.20;99.90;;;;;;5073892;28;20048;-75
2024/02/02 02:16:52;;;;;;;25.65;8.73;;;3.20;99.90;;;;;;5071721;28;20045;-74
2024/02/02 02:19:18;;;;;;;32.38;10.05;;;3.30;99.90;;;;;;5079684;28;20094;-74
2024/02/02 02:21:44;;;;;;;33.78;8.55;;;3.30;99.90;;;;;;5066827;28;20745;-75
2024/02/02 02:24:09;;;;;;;27.40;7.75;;;3.30;99.90;;;;;;5077546;28;20491;-74
2024/02/02 02:26:36;;;;;;;26.80;9.43;;;3.40;99.90;;;;;;5072933;28;20712;-73
2024/02/02 02:29:01;;;;;;;26.02;8.15;;;3.40;99.90;;;;;;5072989;28;20040;-73
2024/02/02 02:31:27;;;;;;;26.38;7.90;;;3.40;99.90;;;;;;5074096;28;20032;-74
2024/02/02 02:33:53;;;;;;;27.05;8.40;;;3.40;99.90;;;;;;5069982;28;20620;-75
2024/02/02 02:36:20;;;;;;;31.50;8.75;;;3.40;99.90;;;;;;5080613;28;20765;-75
2024/02/02 02:38:47;;;;;;;26.33;9.43;;;3.40;99.90;;;;;;5071131;28;20047;-74
2024/02/02 02:41:12;;;;;;;29.55;7.95;;;3.40;99.90;;;;;;5073723;28;20032;-74
2024/02/02 02:43:38;;;;;;;35.15;9.52;;;3.40;99.90;;;;;;5070292;28;20082;-74
2024/02/02 02:46:04;;;;;;;29.48;9.13;;;3.40;99.90;;;;;;5077978;28;20684;-74
2024/02/02 02:48:30;;;;;;;31.92;9.30;;;3.40;99.90;;;;;;5069012;28;20132;-75
2024/02/02 02:50:55;;;;;;;33.03;10.40;;;3.40;99.90;;;;;;5084000;28;20564;-75
2024/02/02 02:53:21;;;;;;;35.35;9.80;;;3.40;99.90;;;;;;5078825;28;20120;-74
2024/02/02 02:55:46;;;;;;;25.50;8.82;;;3.40;99.90;;;;;;5084202;28;20388;-74
2024/02/02 02:58:12;;;;;;;30.92;9.43;;;3.30;99.90;;;;;;5070274;28;20061;-73
2024/02/02 03:00:38;;;;;;;42.85;8.32;;;3.40;99.90;;;;;;5074155;28;20105;-74
2024/02/02 03:03:04;;;;;;;29.02;9.35;;;3.40;99.90;;;;;;5073830;28;20039;-74
2024/02/02 03:05:30;;;;;;;25.42;7.90;;;3.40;99.90;;;;;;5067641;28;20036;-72
2024/02/02 03:07:55;;;;;;;35.03;9.38;;;3.40;99.90;;;;;;5077462;28;20052;-73
2024/02/02 03:10:24;;;;;;;28.40;8.48;;;3.40;99.90;;;;;;5072142;28;20394;-73
2024/02/02 03:12:53;;;;;;;36.58;8.18;;;3.40;99.90;;;;;;5067101;28;20049;-74
2024/02/02 03:15:18;;;;;;;32.38;8.63;;;3.40;99.90;;;;;;5070936;28;20032;-74
2024/02/02 03:17:45;;;;;;;34.63;9.52;;;3.40;99.90;;;;;;5067892;28;20530;-75
2024/02/02 03:20:11;;;;;;;33.78;8.90;;;3.40;99.90;;;;;;5078494;28;20039;-74
2024/02/02 03:22:38;;;;;;;39.90;9.90;;;3.30;99.90;;;;;;5074203;28;20047;-73
2024/02/02 03:25:05;;;;;;;27.55;7.82;;;3.30;99.90;;;;;;5084041;28;20830;-74
2024/02/02 03:27:30;;;;;;;33.45;9.80;;;3.30;99.90;;;;;;5078671;28;20064;-74
2024/02/02 03:29:56;;;;;;;34.30;9.63;;;3.30;99.90;;;;;;5076508;28;20075;-73
2024/02/02 03:32:21;;;;;;;35.38;9.07;;;3.30;99.90;;;;;;5072034;28;20059;-74
2024/02/02 03:34:47;;;;;;;28.85;9.27;;;3.30;99.90;;;;;;5074256;28;20036;-75
2024/02/02 03:37:12;;;;;;;30.77;8.18;;;3.40;99.90;;;;;;5070934;28;20555;-74
2024/02/02 03:39:38;;;;;;;27.52;9.40;;;3.40;99.90;;;;;;5077406;28;20033;-74
2024/02/02 03:42:04;;;;;;;25.50;9.10;;;3.40;99.90;;;;;;5070621;28;20075;-74
2024/02/02 03:44:30;;;;;;;29.45;8.75;;;3.40;99.90;;;;;;5076702;28;20044;-74
2024/02/02 03:46:56;;;;;;;31.30;10.02;;;3.40;99.90;;;;;;5061670;28;20111;-75
2024/02/02 03:49:22;;;;;;;28.02;9.00;;;3.30;99.90;;;;;;5084366;28;20040;-75
2024/02/02 03:51:47;;;;;;;36.85;9.23;;;3.30;99.90;;;;;;5067814;28;20128;-74
2024/02/02 03:54:13;;;;;;;32.35;10.38;;;3.30;99.90;;;;;;5078966;28;20499;-74
2024/02/02 03:56:40;;;;;;;25.13;9.40;;;3.30;99.90;;;;;;5077876;28;20446;-75
2024/02/02 03:59:07;;;;;;;24.80;8.10;;;3.30;99.90;;;;;;5081231;28;20100;-74
2024/02/02 04:01:32;;;;;;;25.52;8.50;;;3.30;99.90;;;;;;5076865;28;20053;-75
2024/02/02 04:03:58;;;;;;;32.28;8.27;;;3.30;99.90;;;;;;5079651;28;20056;-75
2024/02/02 04:06:23;;;;;;;35.78;9.32;;;3.30;99.90;;;;;;5080856;28;20044;-74
2024/02/02 04:08:49;;;;;;;27.88;7.40;;;3.30;99.90;;;;;;5080894;28;20494;-74
2024/02/02 04:11:14;;;;;;;31.52;8.48;;;3.30;99.90;;;;;;5084184;28;20084;-76
2024/02/02 04:13:42;;;;;;;29.48;7.68;;;3.30;99.90;;;;;;5069215;28;20377;-74
2024/02/02 04:16:07;;;;;;;27.98;7.55;;;3.40;99.90;;;;;;5076587;28;20181;-74
2024/02/02 04:18:33;;;;;;;28.90;7.75;;;3.40;99.90;;;;;;5082077;28;20134;-75
2024/02/02 04:20:58;;;;;;;39.00;8.93;;;3.40;99.90;;;;;;5086547;28;20195;-72
2024/02/02 04:23:25;;;;;;;25.88;7.80;;;3.30;99.90;;;;;;5077229;28;20044;-75
2024/02/02 04:25:50;;;;;;;29.55;8.43;;;3.30;99.90;;;;;;5083297;28;20048;-75
2024/02/02 04:28:16;;;;;;;38.15;8.52;;;3.30;99.90;;;;;;5079850;28;20028;-74
2024/02/02 04:30:42;;;;;;;30.17;8.20;;;3.30;99.90;;;;;;5077613;28;20029;-74
2024/02/02 04:33:07;;;;;;;27.27;8.52;;;3.30;99.90;;;;;;5057114;28;20048;-74
2024/02/02 04:35:34;;;;;;;40.28;8.95;;;3.30;99.90;;;;;;5064941;28;20037;-74
2024/02/02 04:38:00;;;;;;;26.00;8.95;;;3.30;99.90;;;;;;5052458;28;20044;-74
2024/02/02 04:40:26;;;;;;;25.95;8.90;;;3.30;99.90;;;;;;5051288;28;20054;-76
2024/02/02 04:42:52;;;;;;;26.92;8.55;;;3.30;99.90;;;;;;5045766;28;20033;-72
2024/02/02 04:45:17;;;;;;;30.60;9.55;;;3.30;99.90;;;;;;5055714;28;20475;-74
2024/02/02 04:47:43;;;;;;;29.13;8.48;;;3.30;99.90;;;;;;5054510;28;20037;-73
2024/02/02 04:50:09;;;;;;;32.10;8.63;;;3.30;99.90;;;;;;5065634;28;20594;-72
2024/02/02 04:52:34;;;;;;;29.85;8.30;;;3.30;99.90;;;;;;5049624;28;20041;-75
2024/02/02 04:55:00;;;;;;;25.27;8.15;;;3.30;99.90;;;;;;5048865;28;20090;-73
2024/02/02 04:57:25;;;;;;;24.08;8.75;;;3.30;99.90;;;;;;5049668;28;20285;-74
2024/02/02 04:59:51;;;;;;;36.63;8.13;;;3.30;99.90;;;;;;5061975;28;20091;-74
2024/02/02 05:02:17;;;;;;;28.67;6.65;;;3.30;99.90;;;;;;5067676;28;20591;-73
2024/02/02 05:04:42;;;;;;;20.90;6.85;;;3.30;99.90;;;;;;5063261;28;20045;-68
2024/02/02 05:07:08;;;;;;;26.35;7.60;;;3.30;99.90;;;;;;5063864;28;20132;-73
2024/02/02 05:09:34;;;;;;;24.73;6.78;;;3.30;99.90;;;;;;5062661;28;20495;-72
2024/02/02 05:11:59;;;;;;;21.88;6.85;;;3.30;99.90;;;;;;5060863;28;20037;-74
2024/02/02 05:14:25;;;;;;;27.73;7.35;;;3.30;99.90;;;;;;5077975;28;20075;-73
2024/02/02 05:16:50;;;;;;;22.23;5.97;;;3.30;99.90;;;;;;5076380;28;20064;-73
2024/02/02 05:19:16;;;;;;;20.85;6.85;;;3.30;99.90;;;;;;5071208;28;20071;-74
2024/02/02 05:21:42;;;;;;;32.65;6.88;;;3.20;99.90;;;;;;5070569;28;20033;-74
2024/02/02 05:24:08;;;;;;;28.27;7.93;;;3.30;99.90;;;;;;5084469;28;20067;-73
2024/02/02 05:26:34;;;;;;;26.20;6.32;;;3.30;99.90;;;;;;5078195;28;20045;-74
2024/02/02 05:28:59;;;;;;;18.58;5.13;;;3.20;99.90;;;;;;5079603;28;20051;-74
2024/02/02 05:31:25;;;;;;;20.95;5.88;;;3.30;99.90;;;;;;5061285;28;20132;-73
2024/02/02 05:33:50;;;;;;;24.38;5.38;;;3.30;99.90;;;;;;5071463;28;20040;-73
2024/02/02 05:36:16;;;;;;;22.23;5.22;;;3.20;99.90;;;;;;5076609;28;20097;-73
2024/02/02 05:38:41;;;;;;;18.27;5.13;;;3.30;99.90;;;;;;5081086;28;20136;-74
2024/02/02 05:41:07;;;;;;;21.83;5.07;;;3.40;99.90;;;;;;5076761;28;20037;-73
2024/02/02 05:43:32;;;;;;;13.88;5.03;;;3.30;99.90;;;;;;5064545;28;20044;-75
2024/02/02 05:45:58;;;;;;;17.17;4.90;;;3.30;99.90;;;;;;5083549;28;20040;-74
2024/02/02 05:48:24;;;;;;;25.85;5.40;;;3.30;99.90;;;;;;5076463;28;20493;-74
2024/02/02 05:50:49;;;;;;;21.00;4.97;;;3.40;99.90;;;;;;5081137;28;20078;-73
2024/02/02 05:53:15;;;;;;;12.48;3.88;;;3.40;99.90;;;;;;5076446;28;20040;-73
2024/02/02 05:55:42;;;;;;;18.80;4.63;;;3.40;99.90;;;;;;5086269;28;20051;-73
2024/02/02 05:58:07;;;;;;;22.33;4.45;;;3.40;99.90;;;;;;5078791;28;20119;-73
2024/02/02 06:00:33;;;;;;;17.83;5.22;;;3.40;99.90;;;;;;5083339;28;20200;-73
2024/02/02 06:02:59;;;;;;;18.58;5.13;;;3.40;99.90;;;;;;5066452;28;20029;-74
2024/02/02 06:05:24;;;;;;;25.10;5.35;;;3.40;99.90;;;;;;5071684;28;20545;-75
2024/02/02 06:07:50;;;;;;;20.15;5.50;;;3.40;99.90;;;;;;5070336;28;20461;-74
2024/02/02 06:10:15;;;;;;;21.70;4.57;;;3.40;99.90;;;;;;5073036;28;20028;-76
2024/02/02 06:12:41;;;;;;;19.83;4.60;;;3.40;99.90;;;;;;5060561;28;20044;-74
2024/02/02 06:15:07;;;;;;;22.17;5.45;;;3.40;99.90;;;;;;5072680;28;20059;-74
2024/02/02 06:17:33;;;;;;;28.67;6.22;;;3.30;99.90;;;;;;5075310;28;20056;-74
2024/02/02 06:19:58;;;;;;;21.83;5.20;;;3.30;99.90;;;;;;5074231;28;20230;-75
2024/02/02 06:22:24;;;;;;;17.98;5.22;;;3.30;99.90;;;;;;5077707;28;20040;-74
2024/02/02 06:24:50;;;;;;;23.30;6.47;;;3.30;99.90;;;;;;5072476;28;20033;-76
2024/02/02 06:27:15;;;;;;;18.27;5.78;;;3.20;99.90;;;;;;5075843;28;20153;-75
2024/02/02 06:29:41;;;;;;;26.48;6.85;;;3.20;99.90;;;;;;5081904;28;20063;-74
2024/02/02 06:32:07;;;;;;;28.27;6.75;;;3.30;99.90;;;;;;5064799;28;20036;-73
2024/02/02 06:34:32;;;;;;;30.65;7.30;;;3.30;99.90;;;;;;5070722;28;20087;-75
2024/02/02 06:36:58;;;;;;;30.05;6.65;;;3.30;99.90;;;;;;5080144;28;20078;-75
2024/02/02 06:39:24;;;;;;;24.88;7.32;;;3.30;99.90;;;;;;5079105;28;20040;-74
2024/02/02 06:41:50;;;;;;;30.65;7.72;;;3.30;99.90;;;;;;5069595;28;20115;-74
2024/02/02 06:44:16;;;;;;;21.13;6.68;;;3.30;99.90;;;;;;5077656;28;20028;-73
2024/02/02 06:46:41;;;;;;;28.05;7.07;;;3.40;99.90;;;;;;5080480;28;20031;-74
2024/02/02 06:49:07;;;;;;;21.88;6.53;;;3.40;99.90;;;;;;5074177;28;20525;-74
2024/02/02 06:51:32;;;;;;;17.08;5.63;;;3.40;99.90;;;;;;5077430;28;20477;-75
2024/02/02 06:53:58;;;;;;;15.27;5.45;;;3.40;99.90;;;;;;5072942;28;20037;-76
2024/02/02 06:56:42;;;;;;;16.88;5.78;;;3.40;99.90;;;;;;5082834;28;20044;-73
2024/02/02 06:59:08;;;;;;;25.33;6.07;;;3.50;99.90;;;;;;5080118;28;20519;-74
2024/02/02 07:01:38;;;;;;;21.90;5.53;;;3.50;99.90;;;;;;5073701;28;20036;-75
2024/02/02 07:04:08;;;;;;;24.88;5.38;;;3.40;99.90;;;;;;5073755;28;20044;-76
2024/02/02 07:06:35;;;;;;;12.48;4.05;;;3.50;99.90;;;;;;5071462;28;20523;-75
2024/02/02 07:09:07;;;;;;;16.60;4.80;;;3.50;99.90;;;;;;5080614;28;20036;-75
2024/02/02 07:11:52;;;;;;;23.33;4.65;;;3.50;99.90;;;;;;5072886;28;20033;-74
2024/02/02 07:14:33;;;;;;;15.70;4.35;;;3.50;99.90;;;;;;5076492;28;20040;-75
2024/02/02 07:16:59;;;;;;;18.98;4.65;;;3.60;99.90;;;;;;5063908;28;20072;-74
2024/02/02 07:19:40;;;;;;;21.48;4.80;;;3.60;99.90;;;;;;5083259;28;20109;-74
2024/02/02 07:22:28;;;;;;;14.30;3.42;;;3.60;99.90;;;;;;5074663;28;20546;-76
2024/02/02 07:24:53;;;;;;;19.42;4.07;;;3.60;99.90;;;;;;5076967;28;20098;-73
2024/02/02 07:28:08;;;;;;;16.67;4.32;;;3.70;99.90;;;;;;5071470;28;20069;-73
2024/02/02 07:31:08;;;;;;;22.38;3.95;;;3.70;99.90;;;;;;5067341;28;20042;-75
2024/02/02 07:33:46;;;;;;;21.55;4.13;;;3.70;99.90;;;;;;5079556;28;20116;-74
2024/02/02 07:36:31;;;;;;;20.80;4.43;;;3.70;99.90;;;;;;5080203;28;20521;-73
2024/02/02 07:38:56;;;;;;;17.92;4.80;;;3.80;99.90;;;;;;5079000;28;20044;-73
2024/02/02 07:41:24;;;;;;;21.95;4.40;;;3.80;99.90;;;;;;5069023;28;20033;-72
2024/02/02 07:43:54;;;;;;;17.50;4.10;;;3.80;99.90;;;;;;5071063;28;20174;-69
2024/02/02 07:46:20;;;;;;;17.30;3.67;;;3.90;99.90;;;;;;5081922;28;20161;-69
2024/02/02 07:48:47;;;;;;;16.85;4.55;;;3.90;99.90;;;;;;5084475;28;20036;-69
2024/02/02 07:51:15;;;;;;;19.30;4.53;;;3.90;99.90;;;;;;5077765;28;20404;-68
2024/02/02 07:53:42;;;;;;;21.58;5.28;;;3.90;99.90;;;;;;5082886;28;20666;-69
2024/02/02 07:56:08;;;;;;;20.60;3.63;;;3.90;99.90;;;;;;5072209;28;20062;-70
2024/02/02 07:58:34;;;;;;;16.10;4.03;;;3.90;99.90;;;;;;5076192;28;20054;-64
2024/02/02 08:01:00;;;;;;;18.83;3.97;;;4.00;99.90;;;;;;5075954;28;20036;-72
2024/02/02 08:03:26;;;;;;;15.80;4.07;;;4.00;99.90;;;;;;5069285;28;20048;-69
2024/02/02 08:05:52;;;;;;;20.15;3.72;;;4.10;99.90;;;;;;5069573;28;20066;-67
2024/02/02 08:08:17;;;;;;;14.45;3.40;;;4.10;99.90;;;;;;5077470;28;20134;-67
2024/02/02 08:10:43;;;;;;;22.10;4.50;;;4.20;99.90;;;;;;5072962;28;20113;-69
2024/02/02 08:13:12;;;;;;;19.67;3.25;;;4.20;99.90;;;;;;5065251;28;20040;-69
2024/02/02 08:15:39;;;;;;;21.88;4.28;;;4.20;99.90;;;;;;5069198;28;20094;-72
2024/02/02 08:18:08;;;;;;;18.52;4.22;;;4.20;99.90;;;;;;5071310;28;20044;-70
2024/02/02 08:20:34;;;;;;;14.48;3.10;;;4.20;99.90;;;;;;5063969;28;20048;-72
2024/02/02 08:23:00;;;;;;;9.63;3.15;;;4.20;99.90;;;;;;5075313;28;20036;-69
2024/02/02 08:25:26;;;;;;;15.32;3.50;;;4.20;99.90;;;;;;5069204;28;20045;-69
2024/02/02 08:27:52;;;;;;;14.23;3.78;;;4.20;99.90;;;;;;5073856;28;20055;-69
2024/02/02 08:30:18;;;;;;;17.40;3.60;;;4.10;99.90;;;;;;5070514;28;20039;-69
2024/02/02 08:32:47;;;;;;;20.15;3.75;;;4.10;99.90;;;;;;5078651;28;20047;-68
2024/02/02 08:35:13;;;;;;;18.52;3.50;;;4.20;99.90;;;;;;5069921;28;20045;-70
2024/02/02 08:37:39;;;;;;;20.10;3.47;;;4.20;99.90;;;;;;5075075;28;20051;-63
2024/02/02 08:40:33;;;;;;;21.90;3.60;;;4.20;99.90;;;;;;5075608;28;20093;-74
2024/02/02 08:42:59;;;;;;;17.08;4.55;;;4.20;99.90;;;;;;5075429;28;20044;-72
2024/02/02 08:46:02;;;;;;;16.52;4.47;;;4.40;99.90;;;;;;5067756;28;20040;-72
2024/02/02 08:48:37;;;;;;;14.98;3.00;;;4.50;99.90;;;;;;5083181;28;20521;-72
2024/02/02 08:51:20;;;;;;;15.77;3.30;;;4.70;99.90;;;;;;5070143;28;20117;-73
2024/02/02 08:53:46;;;;;;;19.45;3.33;;;4.70;99.90;;;;;;5073450;28;20059;-72
2024/02/02 08:56:13;;;;;;;13.82;3.50;;;4.80;99.90;;;;;;5074598;28;20124;-72
2024/02/02 08:58:41;;;;;;;15.05;3.22;;;4.90;99.90;;;;;;5072580;28;20048;-72
2024/02/02 09:01:38;;;;;;;11.73;3.40;;;4.90;99.90;;;;;;5075843;28;20040;-73
2024/02/02 09:04:05;;;;;;;12.60;3.08;;;4.90;99.90;;;;;;5081990;28;20040;-73
2024/02/02 09:06:44;;;;;;;15.50;3.00;;;4.90;99.90;;;;;;5077085;28;20051;-72
2024/02/02 09:09:11;;;;;;;15.07;4.18;;;4.90;99.90;;;;;;5079036;28;20074;-72
2024/02/02 09:11:37;;;;;;;19.27;3.85;;;4.90;99.90;;;;;;5082251;28;20093;-73
2024/02/02 09:14:10;;;;;;;14.63;3.00;;;5.00;99.90;;;;;;5067799;28;20434;-72
2024/02/02 09:16:50;;;;;;;12.20;2.35;;;5.10;99.90;;;;;;5080767;28;20044;-73
2024/02/02 09:19:37;;;;;;;15.05;2.92;;;5.20;99.90;;;;;;5075408;28;20032;-73
2024/02/02 09:22:04;;;;;;;;;;;5.20;99.90;;;;;;5073947;28;20558;-72
2024/02/02 09:24:43;;;;;;;11.77;2.70;;;5.20;99.90;;;;;;5085670;28;19951;-73
2024/02/02 09:27:32;;;;;;;18.00;3.97;;;5.20;99.90;;;;;;5083463;28;20040;-72
2024/02/02 09:29:59;;;;;;;13.20;2.63;;;5.40;99.90;;;;;;5080947;28;20083;-73
2024/02/02 09:32:26;;;;;;;12.98;2.85;;;5.40;99.90;;;;;;5079104;28;20047;-72
2024/02/02 09:34:52;;;;;;;17.98;2.83;;;5.60;99.90;;;;;;5077949;28;20093;-72
2024/02/02 09:37:24;;;;;;;15.27;3.88;;;5.70;99.90;;;;;;5068461;28;20048;-73
2024/02/02 09:39:54;;;;;;;17.63;4.32;;;5.80;99.90;;;;;;5087485;28;20035;-71
2024/02/02 09:42:25;;;;;;;13.70;2.70;;;5.90;99.90;;;;;;5082038;28;20051;-71
2024/02/02 09:45:02;;;;;;;13.10;3.35;;;6.00;99.90;;;;;;5083260;28;20036;-71
2024/02/02 09:47:27;;;;;;;;;;;6.20;99.90;;;;;;5073919;28;20639;-73
2024/02/02 09:50:08;;;;;;;11.75;2.55;;;6.40;99.90;;;;;;5076718;28;20123;-73
2024/02/02 09:52:45;;;;;;;15.82;3.60;;;6.50;99.90;;;;;;5074786;28;20063;-72
2024/02/02 09:55:29;;;;;;;14.15;2.70;;;6.50;99.90;;;;;;5076766;28;20816;-71
2024/02/02 09:58:07;;;;;;;19.42;3.63;;;6.50;99.90;;;;;;5062999;28;20045;-71
2024/02/02 10:00:53;;;;;;;11.25;2.45;;;6.60;99.90;;;;;;5076810;28;20083;-71
2024/02/02 10:03:51;;;;;;;12.70;2.60;;;6.60;99.90;;;;;;5074561;28;20046;-71
2024/02/02 10:06:16;;;;;;;;;;;6.70;99.90;;;;;;5078202;28;20450;-71
2024/02/02 10:08:44;;;;;;;14.80;3.00;;;6.70;99.90;;;;;;5069359;28;19916;-70
2024/02/02 10:11:13;;;;;;;22.02;3.92;;;6.70;99.90;;;;;;5077712;28;20044;-71
2024/02/02 10:14:11;;;;;;;16.27;3.80;;;6.70;99.90;;;;;;5084602;28;20104;-71
2024/02/02 10:17:12;;;;;;;17.95;3.85;;;6.70;99.90;;;;;;5078650;28;20049;-71
2024/02/02 10:20:11;;;;;;;19.83;3.90;;;6.70;99.90;;;;;;5078646;28;20431;-71
2024/02/02 10:22:47;;;;;;;11.82;2.55;;;6.70;99.90;;;;;;5071910;28;20424;-71
2024/02/02 10:25:40;;;;;;;19.15;3.08;;;6.80;99.90;;;;;;5078454;28;20079;-71
2024/02/02 10:28:30;;;;;;;14.88;2.88;;;6.80;99.90;;;;;;5067984;28;20051;-71
2024/02/02 10:31:05;;;;;;;10.98;3.22;;;6.90;99.90;;;;;;5069219;28;20911;-70
2024/02/02 10:33:35;;;;;;;15.48;2.75;;;6.90;99.90;;;;;;5079591;28;20051;-71
2024/02/02 10:36:43;;;;;;;15.45;3.45;;;6.90;99.90;;;;;;5081363;28;20055;-71
2024/02/02 10:39:43;;;;;;;22.85;3.55;;;7.00;99.90;;;;;;5080022;28;20506;-71
2024/02/02 10:42:22;;;;;;;22.55;4.47;;;6.90;99.90;;;;;;5072477;28;20419;-71
2024/02/02 10:45:18;;;;;;;14.30;2.90;;;7.00;99.90;;;;;;5078640;28;20032;-71
2024/02/02 10:48:11;;;;;;;11.07;2.83;;;7.00;99.90;;;;;;5080121;28;20040;-71
2024/02/02 10:50:57;;;;;;;17.30;3.50;;;7.10;99.90;;;;;;5085321;28;20115;-71
2024/02/02 10:54:00;;;;;;;14.90;3.47;;;7.10;99.90;;;;;;5078320;28;20040;-71
2024/02/02 10:56:57;;;;;;;21.85;3.17;;;7.00;99.90;;;;;;5074095;28;20056;-71
2024/02/02 10:59:50;;;;;;;18.10;3.22;;;7.10;99.90;;;;;;5080612;28;20048;-70
2024/02/02 11:02:54;;;;;;;14.02;3.65;;;7.10;99.90;;;;;;5074930;28;20044;-71
2024/02/02 11:05:49;;;;;;;16.23;4.05;;;7.20;99.90;;;;;;5078376;28;20155;-73
2024/02/02 11:08:18;;;;;;;11.95;3.20;;;7.30;99.90;;;;;;5071798;28;20036;-71
2024/02/02 11:10:59;;;;;;;23.50;4.72;;;7.40;99.90;;;;;;5080468;28;20059;-71
2024/02/02 11:13:43;;;;;;;16.95;2.50;;;7.50;99.90;;;;;;5075218;28;20048;-71
2024/02/02 11:16:33;;;;;;;13.43;2.70;;;7.40;99.90;;;;;;5083132;28;20044;-71
2024/02/02 11:19:14;;;;;;;12.25;3.30;;;7.50;99.90;;;;;;5080065;28;20469;-71
2024/02/02 11:22:06;;;;;;;17.65;3.85;;;7.50;99.90;;;;;;5072400;28;20119;-71
2024/02/02 11:24:57;;;;;;;12.55;2.83;;;7.50;99.90;;;;;;5075417;28;20075;-70
2024/02/02 11:27:54;;;;;;;10.98;2.63;;;7.50;99.90;;;;;;5074199;28;20719;-71
2024/02/02 11:30:39;;;;;;;14.80;3.00;;;7.60;99.90;;;;;;5072130;28;20056;-72
2024/02/02 11:33:23;;;;;;;16.63;3.65;;;7.70;99.90;;;;;;5049687;28;20033;-75
2024/02/02 11:36:08;;;;;;;10.32;2.85;;;7.70;99.90;;;;;;5087252;22;20402;-64
2024/02/02 11:38:42;;;;;;;15.20;2.95;;;7.80;99.90;;;;;;4983966;28;20097;-65
2024/02/02 11:41:14;;;;;;;20.67;3.28;;;7.90;99.90;;;;;;4985891;28;20284;-63
2024/02/02 11:43:41;;;;;;;18.08;3.13;;;8.00;99.90;;;;;;4988547;28;20600;-63
2024/02/02 11:46:07;;;;;;;10.07;2.95;;;8.00;99.90;;;;;;4985962;28;20100;-63
2024/02/02 11:48:35;;;;;;;14.90;2.85;;;7.90;99.90;;;;;;4986181;28;20096;-63
2024/02/02 11:51:02;;;;;;;14.15;3.10;;;8.00;99.90;;;;;;4986067;28;20065;-63
2024/02/02 11:53:40;;;;;;;9.07;2.47;;;8.00;99.90;;;;;;4989745;28;20057;-63
2024/02/02 11:56:19;;;;;;;14.68;3.17;;;8.10;99.90;;;;;;4984330;28;20034;-63
2024/02/02 11:58:50;;;;;;;11.40;2.70;;;8.10;99.90;;;;;;4990017;28;20125;-63
2024/02/02 12:01:28;;;;;;;20.42;3.03;;;8.10;99.90;;;;;;4983839;28;20042;-63
2024/02/02 12:04:16;;;;;;;15.70;3.25;;;8.20;99.90;;;;;;4988156;28;20130;-63
2024/02/02 12:06:55;;;;;;;14.45;2.72;;;8.20;99.90;;;;;;4983351;28;20053;-63
2024/02/02 12:09:28;;;;;;;12.45;3.08;;;8.30;99.90;;;;;;4986098;28;20580;-63
2024/02/02 12:11:55;;;;;;;8.85;2.17;;;8.30;99.90;;;;;;4981388;28;20525;-63
2024/02/02 12:14:29;;;;;;;13.65;3.55;;;8.30;99.90;;;;;;4987660;28;20050;-63
2024/02/02 12:16:55;;;;;;;9.25;3.35;;;8.40;99.90;;;;;;4987689;28;20066;-63
2024/02/02 12:19:20;;;;;;;;;;;8.30;99.90;;;;;;4991263;28;20090;-63
2024/02/02 12:21:47;;;;;;;11.65;2.78;;;8.30;99.90;;;;;;4993217;28;20012;-63
2024/02/02 12:24:13;;;;;;;12.80;3.38;;;8.30;99.90;;;;;;4990421;28;20053;-63
2024/02/02 12:26:38;;;;;;;;;;;8.30;99.90;;;;;;4988613;28;20034;-63
2024/02/02 12:29:04;;;;;;;15.10;3.33;;;8.40;99.90;;;;;;4987957;28;19932;-63
2024/02/02 12:31:29;;;;;;;14.07;3.55;;;8.40;99.90;;;;;;4986305;28;20502;-63
2024/02/02 12:33:55;;;;;;;12.90;2.60;;;8.40;99.90;;;;;;4987645;28;20169;-63
2024/02/02 12:36:24;;;;;;;;;;;8.40;99.90;;;;;;4989503;28;20620;-63
2024/02/02 12:38:52;;;;;;;12.48;2.85;;;8.40;99.90;;;;;;4990584;28;19940;-63
2024/02/02 12:41:18;;;;;;;13.32;2.65;;;8.50;99.90;;;;;;4987504;28;20050;-63
2024/02/02 12:43:47;;;;;;;;;;;8.50;99.90;;;;;;4993228;28;20041;-63
2024/02/02 12:46:18;;;;;;;10.82;2.40;;;8.50;99.90;;;;;;4987148;28;19971;-63
2024/02/02 12:48:46;;;;;;;8.90;2.67;;;8.50;99.90;;;;;;4989735;28;20108;-63
2024/02/02 12:51:20;;;;;;;8.88;3.35;;;8.50;99.90;;;;;;4989305;28;20057;-63
2024/02/02 12:53:50;;;;;;;10.82;2.67;;;8.50;99.90;;;;;;4991836;28;20070;-63
2024/02/02 12:56:18;;;;;;;8.00;2.60;;;8.50;99.90;;;;;;4981827;28;20046;-63
2024/02/02 12:58:44;;;;;;;10.43;2.60;;;8.50;99.90;;;;;;4992242;28;20125;-63
2024/02/02 13:01:10;;;;;;;;;;;8.50;99.90;;;;;;4988348;28;20122;-63
2024/02/02 13:03:44;;;;;;;14.82;2.90;;;8.50;99.90;;;;;;4989921;28;19918;-63